createdAt,value
2022-10-06T00:00:02.505Z,952.19
2022-10-06T00:01:02.600Z,952.23
2022-10-06T00:02:02.461Z,952.33
2022-10-06T00:03:03.144Z,952.34
2022-10-06T00:04:02.558Z,952.40
2022-10-06T00:05:02.432Z,952.43
2022-10-06T00:06:02.435Z,952.43
2022-10-06T00:07:02.426Z,952.41
2022-10-06T00:08:03.342Z,952.39
2022-10-06T00:09:02.397Z,952.37
2022-10-06T00:10:02.380Z,952.44
2022-10-06T00:11:02.338Z,952.47
2022-10-06T00:12:02.333Z,952.46
2022-10-06T00:13:02.298Z,952.54
2022-10-06T00:14:02.347Z,952.58
2022-10-06T00:15:02.325Z,952.59
2022-10-06T00:16:02.358Z,952.61
2022-10-06T00:17:02.330Z,952.62
2022-10-06T00:18:02.258Z,952.56
2022-10-06T00:19:02.266Z,952.59
2022-10-06T00:20:02.344Z,952.59
2022-10-06T00:21:02.261Z,952.61
2022-10-06T00:22:02.232Z,952.66
2022-10-06T00:23:02.209Z,952.67
2022-10-06T00:24:02.239Z,952.70
2022-10-06T00:25:02.256Z,952.69
2022-10-06T00:26:02.188Z,952.71
2022-10-06T00:27:02.176Z,952.73
2022-10-06T00:28:02.235Z,952.72
2022-10-06T00:29:02.135Z,952.69
2022-10-06T00:30:02.135Z,952.69
2022-10-06T00:31:02.145Z,952.82
2022-10-06T00:32:02.194Z,952.78
2022-10-06T00:33:02.817Z,952.79
2022-10-06T00:34:02.195Z,952.86
2022-10-06T00:35:02.101Z,952.83
2022-10-06T00:36:02.075Z,952.81
2022-10-06T00:37:02.033Z,952.77
2022-10-06T00:38:02.100Z,952.79
2022-10-06T00:39:02.032Z,952.80
2022-10-06T00:40:02.123Z,952.80
2022-10-06T00:41:02.069Z,952.82
2022-10-06T00:42:02.034Z,952.88
2022-10-06T00:43:01.996Z,952.88
2022-10-06T00:44:02.061Z,952.92
2022-10-06T00:45:01.966Z,952.85
2022-10-06T00:46:02.003Z,952.88
2022-10-06T00:47:01.983Z,952.85
2022-10-06T00:48:01.929Z,952.78
2022-10-06T00:49:01.928Z,952.84
2022-10-06T00:50:01.920Z,952.81
2022-10-06T00:51:02.005Z,952.81
2022-10-06T00:52:01.880Z,952.85
2022-10-06T00:53:01.985Z,952.82
2022-10-06T00:54:01.860Z,952.84
2022-10-06T00:55:01.857Z,952.79
2022-10-06T00:56:01.899Z,952.74
2022-10-06T00:57:01.822Z,952.74
2022-10-06T00:58:01.822Z,952.75
2022-10-06T00:59:01.970Z,952.69
2022-10-06T01:00:01.833Z,952.72
2022-10-06T01:01:01.805Z,952.73
2022-10-06T01:02:01.846Z,952.76
2022-10-06T01:03:01.817Z,952.79
2022-10-06T01:04:01.794Z,952.83
2022-10-06T01:05:01.772Z,952.83
2022-10-06T01:06:01.765Z,952.88
2022-10-06T01:07:01.719Z,952.91
2022-10-06T01:08:01.778Z,952.92
2022-10-06T01:09:01.688Z,952.90
2022-10-06T01:10:01.727Z,952.92
2022-10-06T01:11:01.668Z,952.86
2022-10-06T01:12:01.673Z,952.88
2022-10-06T01:13:01.651Z,952.87
2022-10-06T01:14:01.780Z,952.82
2022-10-06T01:15:01.665Z,952.81
2022-10-06T01:16:01.688Z,952.77
2022-10-06T01:17:01.630Z,952.77
2022-10-06T01:18:01.609Z,952.80
2022-10-06T01:19:01.752Z,952.79
2022-10-06T01:20:01.554Z,952.81
2022-10-06T01:21:01.553Z,952.83
2022-10-06T01:22:01.602Z,952.85
2022-10-06T01:23:01.542Z,952.90
2022-10-06T01:24:01.533Z,952.92
2022-10-06T01:25:01.533Z,952.92
2022-10-06T01:26:01.528Z,952.87
2022-10-06T01:27:01.548Z,952.90
2022-10-06T01:28:01.581Z,952.93
2022-10-06T01:29:01.525Z,952.94
2022-10-06T01:30:01.447Z,952.93
2022-10-06T01:31:01.523Z,952.96
2022-10-06T01:32:01.484Z,953.02
2022-10-06T01:33:01.413Z,952.99
2022-10-06T01:34:01.404Z,953.01
2022-10-06T01:35:01.509Z,953.00
2022-10-06T01:36:01.400Z,952.99
2022-10-06T01:37:01.482Z,952.98
2022-10-06T01:38:01.391Z,953.01
2022-10-06T01:39:01.338Z,953.00
2022-10-06T01:40:01.342Z,953.05
2022-10-06T01:41:02.377Z,953.03
2022-10-06T01:42:01.338Z,953.01
2022-10-06T01:43:01.302Z,952.97
2022-10-06T01:44:01.304Z,953.01
2022-10-06T01:45:01.388Z,953.00
2022-10-06T01:46:01.310Z,953.00
2022-10-06T01:47:01.316Z,952.97
2022-10-06T01:48:01.320Z,952.95
2022-10-06T01:49:01.269Z,953.00
2022-10-06T01:50:01.250Z,953.00
2022-10-06T01:51:01.215Z,952.98
2022-10-06T01:52:01.195Z,953.03
2022-10-06T01:53:01.234Z,953.01
2022-10-06T01:54:01.227Z,953.04
2022-10-06T01:55:01.171Z,953.03
2022-10-06T01:56:01.143Z,953.06
2022-10-06T01:57:01.144Z,953.04
2022-10-06T01:58:01.152Z,953.07
2022-10-06T01:59:01.119Z,953.07
2022-10-06T02:00:01.137Z,953.06
2022-10-06T02:01:01.101Z,953.06
2022-10-06T02:02:01.282Z,953.02
2022-10-06T02:03:01.106Z,953.02
2022-10-06T02:04:01.120Z,953.04
2022-10-06T02:05:01.062Z,953.01
2022-10-06T02:06:01.064Z,953.08
2022-10-06T02:07:01.051Z,953.03
2022-10-06T02:08:01.111Z,953.06
2022-10-06T02:09:01.169Z,953.07
2022-10-06T02:10:01.031Z,953.08
2022-10-06T02:11:01.948Z,953.05
2022-10-06T02:12:01.175Z,953.06
2022-10-06T02:13:00.965Z,953.07
2022-10-06T02:14:01.091Z,953.03
2022-10-06T02:15:00.960Z,953.06
2022-10-06T02:16:01.111Z,953.05
2022-10-06T02:17:00.937Z,953.00
2022-10-06T02:18:00.967Z,952.97
2022-10-06T02:19:00.890Z,953.01
2022-10-06T02:20:00.901Z,952.96
2022-10-06T02:21:00.889Z,952.97
2022-10-06T02:22:00.864Z,952.98
2022-10-06T02:23:00.863Z,953.00
2022-10-06T02:24:00.889Z,953.00
2022-10-06T02:25:00.857Z,953.04
2022-10-06T02:26:00.810Z,953.13
2022-10-06T02:27:00.812Z,953.11
2022-10-06T02:28:00.911Z,953.09
2022-10-06T02:29:00.787Z,953.10
2022-10-06T02:30:01.722Z,953.06
2022-10-06T02:31:00.792Z,953.08
2022-10-06T02:32:00.739Z,953.05
2022-10-06T02:33:00.779Z,953.07
2022-10-06T02:34:00.765Z,953.09
2022-10-06T02:35:00.718Z,953.08
2022-10-06T02:36:00.707Z,953.13
2022-10-06T02:37:00.716Z,953.14
2022-10-06T02:38:00.677Z,953.11
2022-10-06T02:39:00.690Z,953.13
2022-10-06T02:40:00.728Z,953.10
2022-10-06T02:41:00.640Z,953.09
2022-10-06T02:42:00.692Z,953.12
2022-10-06T02:43:00.630Z,953.13
2022-10-06T02:44:00.619Z,953.11
2022-10-06T02:45:00.679Z,953.10
2022-10-06T02:46:00.607Z,953.13
2022-10-06T02:47:00.581Z,953.11
2022-10-06T02:48:00.627Z,953.17
2022-10-06T02:49:00.586Z,953.10
2022-10-06T02:50:00.699Z,953.10
2022-10-06T02:51:00.539Z,953.08
2022-10-06T02:52:00.530Z,953.10
2022-10-06T02:53:00.563Z,953.14
2022-10-06T02:54:00.508Z,953.15
2022-10-06T02:55:00.528Z,953.16
2022-10-06T02:56:00.478Z,953.20
2022-10-06T02:57:00.486Z,953.19
2022-10-06T02:58:00.464Z,953.26
2022-10-06T02:59:00.458Z,953.30
2022-10-06T03:00:00.532Z,953.25
2022-10-06T03:01:00.421Z,953.26
2022-10-06T03:02:00.612Z,953.28
2022-10-06T03:03:00.469Z,953.22
2022-10-06T03:04:00.402Z,953.24
2022-10-06T03:05:00.393Z,953.22
2022-10-06T03:06:00.398Z,953.19
2022-10-06T03:07:00.495Z,953.18
2022-10-06T03:08:00.342Z,953.17
2022-10-06T03:09:00.358Z,953.20
2022-10-06T03:10:00.356Z,953.24
2022-10-06T03:11:00.304Z,953.22
2022-10-06T03:12:00.341Z,953.23
2022-10-06T03:13:00.311Z,953.22
2022-10-06T03:14:00.306Z,953.23
2022-10-06T03:15:00.604Z,953.26
2022-10-06T03:16:00.358Z,953.26
2022-10-06T03:17:00.298Z,953.24
2022-10-06T03:18:00.219Z,953.27
2022-10-06T03:19:00.311Z,953.28
2022-10-06T03:20:00.271Z,953.28
2022-10-06T03:21:00.224Z,953.29
2022-10-06T03:22:00.191Z,953.32
2022-10-06T03:23:00.232Z,953.35
2022-10-06T03:24:00.149Z,953.38
2022-10-06T03:25:00.163Z,953.38
2022-10-06T03:26:00.146Z,953.41
2022-10-06T03:27:00.196Z,953.42
2022-10-06T03:28:00.282Z,953.44
2022-10-06T03:29:00.158Z,953.50
2022-10-06T03:30:00.124Z,953.54
2022-10-06T03:31:00.126Z,953.54
2022-10-06T03:32:00.105Z,953.59
2022-10-06T03:33:00.100Z,953.54
2022-10-06T03:34:00.085Z,953.53
2022-10-06T03:35:00.130Z,953.53
2022-10-06T03:36:00.032Z,953.53
2022-10-06T03:37:00.046Z,953.54
2022-10-06T03:38:00.096Z,953.49
2022-10-06T03:38:59.991Z,953.49
2022-10-06T03:39:59.990Z,953.44
2022-10-06T03:40:59.976Z,953.43
2022-10-06T03:41:59.975Z,953.42
2022-10-06T03:42:59.949Z,953.40
2022-10-06T03:44:00.466Z,953.42
2022-10-06T03:44:59.933Z,953.42
2022-10-06T03:45:59.951Z,953.46
2022-10-06T03:47:00.064Z,953.49
2022-10-06T03:47:59.892Z,953.49
2022-10-06T03:48:59.893Z,953.61
2022-10-06T03:49:59.972Z,953.52
2022-10-06T03:50:59.880Z,953.57
2022-10-06T03:51:59.851Z,953.57
2022-10-06T03:52:59.822Z,953.59
2022-10-06T03:53:59.861Z,953.57
2022-10-06T03:54:59.834Z,953.60
2022-10-06T03:55:59.813Z,953.58
2022-10-06T03:56:59.816Z,953.60
2022-10-06T03:57:59.819Z,953.67
2022-10-06T03:58:59.800Z,953.63
2022-10-06T03:59:59.840Z,953.68
2022-10-06T04:00:59.779Z,953.72
2022-10-06T04:01:59.784Z,953.72
2022-10-06T04:02:59.743Z,953.64
2022-10-06T04:03:59.736Z,953.63
2022-10-06T04:04:59.743Z,953.64
2022-10-06T04:05:59.770Z,953.60
2022-10-06T04:06:59.663Z,953.57
2022-10-06T04:07:59.742Z,953.51
2022-10-06T04:08:59.680Z,953.60
2022-10-06T04:09:59.700Z,953.57
2022-10-06T04:10:59.642Z,953.52
2022-10-06T04:11:59.666Z,953.54
2022-10-06T04:12:59.670Z,953.51
2022-10-06T04:13:59.615Z,953.53
2022-10-06T04:15:00.318Z,953.53
2022-10-06T04:15:59.588Z,953.63
2022-10-06T04:16:59.559Z,953.66
2022-10-06T04:17:59.634Z,953.70
2022-10-06T04:18:59.568Z,953.74
2022-10-06T04:19:59.568Z,953.72
2022-10-06T04:20:59.565Z,953.74
2022-10-06T04:21:59.528Z,953.74
2022-10-06T04:22:59.568Z,953.72
2022-10-06T04:23:59.491Z,953.74
2022-10-06T04:25:00.419Z,953.71
2022-10-06T04:25:59.492Z,953.74
2022-10-06T04:26:59.503Z,953.73
2022-10-06T04:27:59.469Z,953.71
2022-10-06T04:28:59.485Z,953.68
2022-10-06T04:29:59.443Z,953.69
2022-10-06T04:30:59.433Z,953.74
2022-10-06T04:31:59.522Z,953.68
2022-10-06T04:32:59.443Z,953.68
2022-10-06T04:33:59.422Z,953.73
2022-10-06T04:34:59.386Z,953.71
2022-10-06T04:35:59.389Z,953.71
2022-10-06T04:36:59.406Z,953.78
2022-10-06T04:37:59.382Z,953.80
2022-10-06T04:38:59.426Z,953.76
2022-10-06T04:39:59.369Z,953.76
2022-10-06T04:40:59.301Z,953.71
2022-10-06T04:41:59.288Z,953.70
2022-10-06T04:42:59.366Z,953.66
2022-10-06T04:43:59.272Z,953.70
2022-10-06T04:44:59.257Z,953.66
2022-10-06T04:45:59.301Z,953.68
2022-10-06T04:46:59.309Z,953.64
2022-10-06T04:47:59.238Z,953.64
2022-10-06T04:48:59.236Z,953.65
2022-10-06T04:49:59.191Z,953.60
2022-10-06T04:50:59.268Z,953.62
2022-10-06T04:51:59.169Z,953.57
2022-10-06T04:52:59.173Z,953.54
2022-10-06T04:53:59.189Z,953.50
2022-10-06T04:54:59.140Z,953.49
2022-10-06T04:55:59.160Z,953.50
2022-10-06T04:56:59.148Z,953.48
2022-10-06T04:57:59.194Z,953.50
2022-10-06T04:58:59.094Z,953.53
2022-10-06T05:00:05.031Z,953.53
2022-10-06T05:00:59.117Z,953.55
2022-10-06T05:01:59.226Z,953.58
2022-10-06T05:02:59.050Z,953.63
2022-10-06T05:03:59.072Z,953.69
2022-10-06T05:04:59.065Z,953.73
2022-10-06T05:05:59.019Z,953.76
2022-10-06T05:06:59.034Z,953.68
2022-10-06T05:07:59.023Z,953.66
2022-10-06T05:08:59.025Z,953.64
2022-10-06T05:09:58.998Z,953.62
2022-10-06T05:10:58.981Z,953.59
2022-10-06T05:11:59.079Z,953.54
2022-10-06T05:12:58.981Z,953.50
2022-10-06T05:13:58.992Z,953.46
2022-10-06T05:14:59.458Z,953.47
2022-10-06T05:15:58.950Z,953.49
2022-10-06T05:16:58.924Z,953.51
2022-10-06T05:17:58.916Z,953.50
2022-10-06T05:18:58.895Z,953.52
2022-10-06T05:19:58.963Z,953.46
2022-10-06T05:21:02.044Z,953.44
2022-10-06T05:21:58.880Z,953.41
2022-10-06T05:22:58.839Z,953.37
2022-10-06T05:23:58.892Z,953.36
2022-10-06T05:24:58.900Z,953.36
2022-10-06T05:25:58.805Z,953.30
2022-10-06T05:27:01.762Z,953.28
2022-10-06T05:27:58.845Z,953.24
2022-10-06T05:28:58.794Z,953.23
2022-10-06T05:29:58.794Z,953.26
2022-10-06T05:30:58.909Z,953.28
2022-10-06T05:31:58.783Z,953.21
2022-10-06T05:32:58.760Z,953.28
2022-10-06T05:33:58.755Z,953.27
2022-10-06T05:34:58.733Z,953.26
2022-10-06T05:35:58.720Z,953.26
2022-10-06T05:36:58.680Z,953.28
2022-10-06T05:37:58.701Z,953.22
2022-10-06T05:38:58.648Z,953.26
2022-10-06T05:39:58.751Z,953.27
2022-10-06T05:40:58.684Z,953.26
2022-10-06T05:41:58.631Z,953.29
2022-10-06T05:42:58.671Z,953.27
2022-10-06T05:43:58.605Z,953.25
2022-10-06T05:44:58.631Z,953.23
2022-10-06T05:45:58.652Z,953.27
2022-10-06T05:46:58.564Z,953.22
2022-10-06T05:47:58.581Z,953.21
2022-10-06T05:49:00.033Z,953.25
2022-10-06T05:49:58.539Z,953.22
2022-10-06T05:50:58.538Z,953.24
2022-10-06T05:51:58.568Z,953.19
2022-10-06T05:52:58.489Z,953.14
2022-10-06T05:53:58.649Z,953.15
2022-10-06T05:54:58.546Z,953.13
2022-10-06T05:55:58.468Z,953.14
2022-10-06T05:56:58.540Z,953.18
2022-10-06T05:57:58.561Z,953.19
2022-10-06T05:58:58.473Z,953.19
2022-10-06T05:59:58.427Z,953.23
2022-10-06T06:00:58.453Z,953.26
2022-10-06T06:01:58.467Z,953.28
2022-10-06T06:02:58.443Z,953.29
2022-10-06T06:03:58.387Z,953.28
2022-10-06T06:04:58.352Z,953.26
2022-10-06T06:05:58.433Z,953.29
2022-10-06T06:06:58.432Z,953.21
2022-10-06T06:07:58.319Z,953.21
2022-10-06T06:08:58.319Z,953.28
2022-10-06T06:09:58.343Z,953.30
2022-10-06T06:10:58.515Z,953.32
2022-10-06T06:11:58.274Z,953.34
2022-10-06T06:12:58.737Z,953.31
2022-10-06T06:13:58.267Z,953.35
2022-10-06T06:14:58.931Z,953.31
2022-10-06T06:15:58.279Z,953.33
2022-10-06T06:16:58.313Z,953.38
2022-10-06T06:17:58.303Z,953.42
2022-10-06T06:18:58.321Z,953.48
2022-10-06T06:19:58.204Z,953.48
2022-10-06T06:20:58.213Z,953.47
2022-10-06T06:21:58.279Z,953.55
2022-10-06T06:22:58.147Z,953.52
2022-10-06T06:23:58.172Z,953.51
2022-10-06T06:24:58.178Z,953.48
2022-10-06T06:26:02.291Z,953.49
2022-10-06T06:26:58.156Z,953.50
2022-10-06T06:27:59.233Z,953.48
2022-10-06T06:28:58.133Z,953.60
2022-10-06T06:29:58.091Z,953.64
2022-10-06T06:30:58.165Z,953.67
2022-10-06T06:31:58.070Z,953.69
2022-10-06T06:32:58.157Z,953.68
2022-10-06T06:33:58.064Z,953.72
2022-10-06T06:34:58.078Z,953.68
2022-10-06T06:35:58.084Z,953.70
2022-10-06T06:37:03.607Z,953.60
2022-10-06T06:37:57.999Z,953.62
2022-10-06T06:38:57.994Z,953.61
2022-10-06T06:39:58.039Z,953.61
2022-10-06T06:40:57.956Z,953.62
2022-10-06T06:41:57.969Z,953.61
2022-10-06T06:42:58.070Z,953.57
2022-10-06T06:43:57.944Z,953.59
2022-10-06T06:44:57.915Z,953.62
2022-10-06T06:45:58.350Z,953.63
2022-10-06T06:46:57.925Z,953.52
2022-10-06T06:47:57.889Z,953.45
2022-10-06T06:48:57.892Z,953.54
2022-10-06T06:49:57.952Z,953.57
2022-10-06T06:50:57.868Z,953.61
2022-10-06T06:51:57.866Z,953.60
2022-10-06T06:52:58.043Z,953.52
2022-10-06T06:53:58.563Z,953.57
2022-10-06T06:54:57.900Z,953.54
2022-10-06T06:55:57.830Z,953.58
2022-10-06T06:56:57.809Z,953.57
2022-10-06T06:57:57.942Z,953.57
2022-10-06T06:58:57.844Z,953.58
2022-10-06T06:59:57.745Z,953.69
2022-10-06T07:00:57.810Z,953.66
2022-10-06T07:01:57.827Z,953.57
2022-10-06T07:02:57.706Z,953.62
2022-10-06T07:03:58.761Z,953.69
2022-10-06T07:04:57.718Z,953.70
2022-10-06T07:05:58.588Z,953.70
2022-10-06T07:06:57.714Z,953.68
2022-10-06T07:07:57.758Z,953.72
2022-10-06T07:08:57.780Z,953.77
2022-10-06T07:09:57.676Z,953.77
2022-10-06T07:10:57.640Z,953.83
2022-10-06T07:11:57.726Z,953.86
2022-10-06T07:12:57.619Z,953.83
2022-10-06T07:13:57.644Z,953.91
2022-10-06T07:14:57.630Z,953.89
2022-10-06T07:15:57.689Z,953.89
2022-10-06T07:16:57.658Z,953.85
2022-10-06T07:17:57.584Z,953.88
2022-10-06T07:18:57.581Z,953.87
2022-10-06T07:19:57.613Z,953.85
2022-10-06T07:20:57.505Z,953.94
2022-10-06T07:21:57.511Z,953.96
2022-10-06T07:22:57.506Z,953.97
2022-10-06T07:23:57.487Z,953.93
2022-10-06T07:24:57.495Z,953.94
2022-10-06T07:25:57.534Z,953.96
2022-10-06T07:26:57.452Z,953.92
2022-10-06T07:27:57.573Z,953.92
2022-10-06T07:28:57.495Z,953.94
2022-10-06T07:29:57.511Z,953.94
2022-10-06T07:30:57.516Z,953.97
2022-10-06T07:31:57.525Z,953.97
2022-10-06T07:32:57.438Z,953.88
2022-10-06T07:33:57.394Z,953.92
2022-10-06T07:34:57.393Z,953.93
2022-10-06T07:35:57.373Z,953.91
2022-10-06T07:36:57.357Z,953.91
2022-10-06T07:37:57.314Z,953.95
2022-10-06T07:38:57.343Z,953.90
2022-10-06T07:39:57.296Z,953.84
2022-10-06T07:41:57.313Z,953.89
2022-10-06T07:42:57.288Z,953.90
2022-10-06T07:43:57.249Z,953.92
2022-10-06T07:44:57.248Z,953.97
2022-10-06T07:45:57.322Z,954.05
2022-10-06T07:46:57.264Z,954.03
2022-10-06T07:47:57.262Z,954.05
2022-10-06T07:48:57.983Z,954.05
2022-10-06T07:49:57.197Z,954.04
2022-10-06T07:50:57.227Z,954.06
2022-10-06T07:51:57.288Z,954.08
2022-10-06T07:52:57.142Z,954.06
2022-10-06T07:53:57.205Z,954.14
2022-10-06T07:54:57.157Z,954.12
2022-10-06T07:55:57.111Z,954.15
2022-10-06T07:56:57.126Z,954.11
2022-10-06T07:57:57.109Z,954.08
2022-10-06T07:58:57.100Z,954.11
2022-10-06T08:00:01.946Z,954.08
2022-10-06T08:00:57.055Z,954.10
2022-10-06T08:01:57.126Z,954.12
2022-10-06T08:02:57.147Z,954.07
2022-10-06T08:03:57.011Z,954.03
2022-10-06T08:04:57.042Z,954.08
2022-10-06T08:05:57.004Z,954.09
2022-10-06T08:06:56.981Z,954.08
2022-10-06T08:07:56.994Z,954.05
2022-10-06T08:08:56.993Z,954.05
2022-10-06T08:09:57.007Z,954.10
2022-10-06T08:10:58.343Z,954.10
2022-10-06T08:11:56.956Z,954.08
2022-10-06T08:12:56.933Z,954.08
2022-10-06T08:13:56.943Z,954.08
2022-10-06T08:14:57.263Z,954.08
2022-10-06T08:15:57.077Z,954.13
2022-10-06T08:16:56.937Z,954.22
2022-10-06T08:17:56.865Z,954.17
2022-10-06T08:18:56.843Z,954.21
2022-10-06T08:19:56.832Z,954.25
2022-10-06T08:20:56.843Z,954.21
2022-10-06T08:21:59.876Z,954.25
2022-10-06T08:22:56.861Z,954.23
2022-10-06T08:23:56.845Z,954.23
2022-10-06T08:25:05.853Z,954.22
2022-10-06T08:25:56.790Z,954.22
2022-10-06T08:26:56.799Z,954.24
2022-10-06T08:27:56.773Z,954.22
2022-10-06T08:28:56.737Z,954.24
2022-10-06T08:29:56.869Z,954.28
2022-10-06T08:30:56.840Z,954.30
2022-10-06T08:31:56.977Z,954.28
2022-10-06T08:32:56.727Z,954.30
2022-10-06T08:33:56.915Z,954.28
2022-10-06T08:34:57.439Z,954.29
2022-10-06T08:35:56.661Z,954.24
2022-10-06T08:37:18.778Z,954.29
2022-10-06T08:37:56.724Z,954.28
2022-10-06T08:38:56.661Z,954.29
2022-10-06T08:39:56.616Z,954.37
2022-10-06T08:40:56.628Z,954.31
2022-10-06T08:41:56.618Z,954.35
2022-10-06T08:42:56.626Z,954.32
2022-10-06T08:43:56.626Z,954.37
2022-10-06T08:44:57.070Z,954.36
2022-10-06T08:45:56.655Z,954.41
2022-10-06T08:46:56.558Z,954.40
2022-10-06T08:47:56.605Z,954.40
2022-10-06T08:48:56.517Z,954.44
2022-10-06T08:49:57.159Z,954.44
2022-10-06T08:50:56.502Z,954.40
2022-10-06T08:51:56.492Z,954.43
2022-10-06T08:52:56.518Z,954.45
2022-10-06T08:53:56.498Z,954.44
2022-10-06T08:54:56.490Z,954.48
2022-10-06T08:55:56.461Z,954.51
2022-10-06T08:56:56.472Z,954.50
2022-10-06T08:57:56.441Z,954.45
2022-10-06T08:58:56.409Z,954.42
2022-10-06T08:59:57.646Z,954.49
2022-10-06T09:00:56.510Z,954.47
2022-10-06T09:01:56.528Z,954.48
2022-10-06T09:02:56.369Z,954.51
2022-10-06T09:03:57.096Z,954.49
2022-10-06T09:04:56.338Z,954.52
2022-10-06T09:05:56.351Z,954.59
2022-10-06T09:06:56.393Z,954.64
2022-10-06T09:07:56.968Z,954.68
2022-10-06T09:08:56.360Z,954.66
2022-10-06T09:09:56.785Z,954.71
2022-10-06T09:10:56.301Z,954.67
2022-10-06T09:11:56.321Z,954.72
2022-10-06T09:12:56.329Z,954.71
2022-10-06T09:13:56.267Z,954.76
2022-10-06T09:14:56.279Z,954.75
2022-10-06T09:15:56.256Z,954.77
2022-10-06T09:16:56.184Z,954.73
2022-10-06T09:17:56.260Z,954.75
2022-10-06T09:19:08.115Z,954.76
2022-10-06T09:19:56.520Z,954.78
2022-10-06T09:20:56.156Z,954.77
2022-10-06T09:21:56.184Z,954.81
2022-10-06T09:22:57.171Z,954.80
2022-10-06T09:23:56.229Z,954.77
2022-10-06T09:24:56.236Z,954.80
2022-10-06T09:25:56.121Z,954.83
2022-10-06T09:26:56.159Z,954.83
2022-10-06T09:27:56.169Z,954.82
2022-10-06T09:28:56.116Z,954.86
2022-10-06T09:29:56.407Z,954.89
2022-10-06T09:30:56.175Z,954.88
2022-10-06T09:31:56.191Z,954.91
2022-10-06T09:32:56.081Z,954.89
2022-10-06T09:33:56.033Z,954.92
2022-10-06T09:34:56.084Z,954.99
2022-10-06T09:35:57.072Z,954.95
2022-10-06T09:37:00.925Z,954.97
2022-10-06T09:37:55.999Z,954.96
2022-10-06T09:38:55.945Z,954.99
2022-10-06T09:39:56.286Z,955.04
2022-10-06T09:40:55.956Z,955.06
2022-10-06T09:41:55.923Z,955.04
2022-10-06T09:42:55.924Z,955.13
2022-10-06T09:43:55.951Z,955.12
2022-10-06T09:44:55.930Z,955.16
2022-10-06T09:45:56.235Z,955.11
2022-10-06T09:46:55.940Z,955.18
2022-10-06T09:47:55.859Z,955.14
2022-10-06T09:48:55.850Z,955.18
2022-10-06T09:49:56.190Z,955.18
2022-10-06T09:50:55.833Z,955.14
2022-10-06T09:51:55.908Z,955.18
2022-10-06T09:52:55.859Z,955.17
2022-10-06T09:53:55.814Z,955.13
2022-10-06T09:54:55.842Z,955.18
2022-10-06T09:55:55.770Z,955.20
2022-10-06T09:56:55.756Z,955.20
2022-10-06T09:57:55.785Z,955.22
2022-10-06T09:58:55.866Z,955.24
2022-10-06T09:59:55.879Z,955.27
2022-10-06T10:00:55.840Z,955.27
2022-10-06T10:01:55.730Z,955.19
2022-10-06T10:02:55.939Z,955.27
2022-10-06T10:04:18.661Z,955.25
2022-10-06T10:04:55.683Z,955.27
2022-10-06T10:05:55.689Z,955.27
2022-10-06T10:06:55.646Z,955.32
2022-10-06T10:07:55.643Z,955.25
2022-10-06T10:08:56.162Z,955.32
2022-10-06T10:09:56.017Z,955.26
2022-10-06T10:10:55.769Z,955.23
2022-10-06T10:11:55.618Z,955.25
2022-10-06T10:12:55.658Z,955.30
2022-10-06T10:13:55.573Z,955.27
2022-10-06T10:14:55.544Z,955.32
2022-10-06T10:15:55.633Z,955.39
2022-10-06T10:16:55.551Z,955.35
2022-10-06T10:17:55.541Z,955.32
2022-10-06T10:18:55.624Z,955.39
2022-10-06T10:19:56.002Z,955.42
2022-10-06T10:20:55.524Z,955.40
2022-10-06T10:21:55.508Z,955.43
2022-10-06T10:22:55.484Z,955.45
2022-10-06T10:23:55.581Z,955.44
2022-10-06T10:24:55.529Z,955.48
2022-10-06T10:25:55.449Z,955.54
2022-10-06T10:26:55.411Z,955.50
2022-10-06T10:27:55.519Z,955.49
2022-10-06T10:28:55.548Z,955.54
2022-10-06T10:29:55.690Z,955.53
2022-10-06T10:30:55.445Z,955.52
2022-10-06T10:31:55.455Z,955.52
2022-10-06T10:32:55.391Z,955.55
2022-10-06T10:34:11.947Z,955.58
2022-10-06T10:34:55.731Z,955.57
2022-10-06T10:35:55.319Z,955.59
2022-10-06T10:36:55.306Z,955.57
2022-10-06T10:37:56.374Z,955.55
2022-10-06T10:38:55.285Z,955.57
2022-10-06T10:39:55.410Z,955.60
2022-10-06T10:40:55.299Z,955.66
2022-10-06T10:41:55.268Z,955.63
2022-10-06T10:42:55.254Z,955.65
2022-10-06T10:43:55.257Z,955.67
2022-10-06T10:44:55.615Z,955.69
2022-10-06T10:45:55.225Z,955.67
2022-10-06T10:46:55.369Z,955.67
2022-10-06T10:47:55.210Z,955.67
2022-10-06T10:48:55.233Z,955.74
2022-10-06T10:49:55.186Z,955.75
2022-10-06T10:50:55.221Z,955.74
2022-10-06T10:51:55.234Z,955.75
2022-10-06T10:52:55.145Z,955.74
2022-10-06T10:53:55.134Z,955.77
2022-10-06T10:54:55.393Z,955.81
2022-10-06T10:55:55.466Z,955.80
2022-10-06T10:56:55.202Z,955.85
2022-10-06T10:57:55.173Z,955.85
2022-10-06T10:58:55.064Z,955.85
2022-10-06T10:59:55.131Z,955.86
2022-10-06T11:00:55.079Z,955.86
2022-10-06T11:01:55.114Z,955.84
2022-10-06T11:02:55.060Z,955.89
2022-10-06T11:03:55.096Z,955.93
2022-10-06T11:04:55.150Z,955.99
2022-10-06T11:05:55.063Z,955.98
2022-10-06T11:06:55.678Z,956.04
2022-10-06T11:07:55.012Z,956.05
2022-10-06T11:08:54.975Z,956.04
2022-10-06T11:09:54.983Z,956.06
2022-10-06T11:10:54.934Z,956.09
2022-10-06T11:11:54.918Z,956.08
2022-10-06T11:12:54.893Z,956.09
2022-10-06T11:13:54.877Z,956.10
2022-10-06T11:14:54.940Z,956.09
2022-10-06T11:15:55.254Z,956.16
2022-10-06T11:16:54.904Z,956.14
2022-10-06T11:17:54.858Z,956.23
2022-10-06T11:18:54.867Z,956.21
2022-10-06T11:19:54.927Z,956.21
2022-10-06T11:20:54.954Z,956.23
2022-10-06T11:21:54.819Z,956.25
2022-10-06T11:22:54.772Z,956.28
2022-10-06T11:23:54.891Z,956.24
2022-10-06T11:24:54.774Z,956.26
2022-10-06T11:25:54.817Z,956.30
2022-10-06T11:26:54.816Z,956.35
2022-10-06T11:27:54.764Z,956.38
2022-10-06T11:28:54.717Z,956.38
2022-10-06T11:29:54.720Z,956.44
2022-10-06T11:30:54.719Z,956.46
2022-10-06T11:31:54.798Z,956.41
2022-10-06T11:32:54.675Z,956.47
2022-10-06T11:33:54.806Z,956.47
2022-10-06T11:34:54.673Z,956.44
2022-10-06T11:35:54.763Z,956.50
2022-10-06T11:36:54.614Z,956.44
2022-10-06T11:37:54.624Z,956.42
2022-10-06T11:38:54.639Z,956.47
2022-10-06T11:39:54.623Z,956.46
2022-10-06T11:40:54.596Z,956.45
2022-10-06T11:41:54.842Z,956.40
2022-10-06T11:42:54.665Z,956.44
2022-10-06T11:43:54.581Z,956.43
2022-10-06T11:44:54.645Z,956.43
2022-10-06T11:45:54.710Z,956.43
2022-10-06T11:46:54.540Z,956.37
2022-10-06T11:47:54.534Z,956.39
2022-10-06T11:48:54.538Z,956.43
2022-10-06T11:49:54.473Z,956.37
2022-10-06T11:50:54.556Z,956.41
2022-10-06T11:51:58.336Z,956.39
2022-10-06T11:52:54.461Z,956.37
2022-10-06T11:53:54.487Z,956.40
2022-10-06T11:54:54.422Z,956.42
2022-10-06T11:55:54.408Z,956.44
2022-10-06T11:56:54.431Z,956.45
2022-10-06T11:57:54.381Z,956.45
2022-10-06T11:58:54.391Z,956.46
2022-10-06T11:59:54.354Z,956.47
2022-10-06T12:00:54.370Z,956.49
2022-10-06T12:01:54.481Z,956.53
2022-10-06T12:02:54.506Z,956.50
2022-10-06T12:03:54.364Z,956.56
2022-10-06T12:04:54.345Z,956.62
2022-10-06T12:05:56.827Z,956.66
2022-10-06T12:06:54.272Z,956.70
2022-10-06T12:07:54.261Z,956.71
2022-10-06T12:08:54.267Z,956.80
2022-10-06T12:09:54.264Z,956.81
2022-10-06T12:10:54.240Z,956.86
2022-10-06T12:11:54.318Z,956.83
2022-10-06T12:13:21.231Z,956.87
2022-10-06T12:15:26.869Z,956.86
2022-10-06T12:17:15.557Z,956.90
2022-10-06T12:17:46.757Z,956.90
2022-10-06T12:18:46.698Z,956.95
2022-10-06T12:19:46.700Z,956.97
2022-10-06T12:20:46.681Z,956.91
2022-10-06T12:21:46.690Z,956.89
2022-10-06T12:22:46.667Z,956.90
2022-10-06T12:23:46.671Z,956.92
2022-10-06T12:24:46.646Z,956.89
2022-10-06T12:25:46.642Z,956.93
2022-10-06T12:26:46.638Z,956.92
2022-10-06T12:27:46.619Z,956.95
2022-10-06T12:28:46.632Z,956.97
2022-10-06T12:29:46.607Z,956.96
2022-10-06T12:30:46.598Z,956.96